sensor_id;sensor_type;location;lat;lon;timestamp;pressure;altitude;pressure_sealevel;temperature;humidity
10921;BME280;5513;50.580;8.818;2022-12-10T00:01:50;98128.88;;;0.40;100.00
10921;BME280;5513;50.580;8.818;2022-12-10T00:04:20;98122.81;;;0.40;100.00
10921;BME280;5513;50.580;8.818;2022-12-10T00:06:50;98116.09;;;0.34;100.00
10921;BME280;5513;50.580;8.818;2022-12-10T00:09:20;98116.44;;;0.47;100.00
10921;BME280;5513;50.580;8.818;2022-12-10T00:11:53;98128.63;;;0.46;100.00
10921;BME280;5513;50.580;8.818;2022-12-10T00:14:22;98117.84;;;0.34;100.00
10921;BME280;5513;50.580;8.818;2022-12-10T00:16:58;98132.34;;;0.41;100.00
10921;BME280;5513;50.580;8.818;2022-12-10T00:19:28;98124.75;;;0.35;100.00
10921;BME280;5513;50.580;8.818;2022-12-10T00:21:58;98124.31;;;0.23;100.00
10921;BME280;5513;50.580;8.818;2022-12-10T00:24:26;98127.78;;;0.24;100.00
10921;BME280;5513;50.580;8.818;2022-12-10T00:26:54;98135.81;;;0.18;100.00
10921;BME280;5513;50.580;8.818;2022-12-10T00:29:26;98122.50;;;0.04;100.00
10921;BME280;5513;50.580;8.818;2022-12-10T00:31:56;98125.53;;;0.15;100.00
10921;BME280;5513;50.580;8.818;2022-12-10T00:34:25;98126.84;;;0.03;100.00
10921;BME280;5513;50.580;8.818;2022-12-10T00:36:53;98122.16;;;-0.11;100.00
10921;BME280;5513;50.580;8.818;2022-12-10T00:39:24;98133.31;;;-0.07;100.00
10921;BME280;5513;50.580;8.818;2022-12-10T00:41:52;98129.03;;;-0.08;100.00
10921;BME280;5513;50.580;8.818;2022-12-10T00:44:21;98133.97;;;-0.02;100.00
10921;BME280;5513;50.580;8.818;2022-12-10T00:46:51;98137.78;;;-0.11;100.00
10921;BME280;5513;50.580;8.818;2022-12-10T00:49:21;98128.34;;;-0.13;100.00
10921;BME280;5513;50.580;8.818;2022-12-10T00:51:53;98133.72;;;-0.18;100.00
10921;BME280;5513;50.580;8.818;2022-12-10T00:54:23;98143.72;;;-0.31;100.00
10921;BME280;5513;50.580;8.818;2022-12-10T00:56:51;98138.84;;;-0.40;100.00
10921;BME280;5513;50.580;8.818;2022-12-10T00:59:22;98148.25;;;-0.36;100.00
10921;BME280;5513;50.580;8.818;2022-12-10T01:01:51;98140.28;;;-0.31;100.00
10921;BME280;5513;50.580;8.818;2022-12-10T01:04:20;98140.06;;;-0.25;100.00
10921;BME280;5513;50.580;8.818;2022-12-10T01:06:50;98145.66;;;-0.36;100.00
10921;BME280;5513;50.580;8.818;2022-12-10T01:09:25;98145.66;;;-0.36;100.00
10921;BME280;5513;50.580;8.818;2022-12-10T01:11:56;98147.81;;;-0.47;100.00
10921;BME280;5513;50.580;8.818;2022-12-10T01:14:28;98152.25;;;-0.50;100.00
10921;BME280;5513;50.580;8.818;2022-12-10T01:16:59;98155.16;;;-0.60;100.00
10921;BME280;5513;50.580;8.818;2022-12-10T01:19:30;98151.78;;;-0.62;100.00
10921;BME280;5513;50.580;8.818;2022-12-10T01:22:00;98149.56;;;-0.72;100.00
10921;BME280;5513;50.580;8.818;2022-12-10T01:24:30;98159.91;;;-0.71;100.00
10921;BME280;5513;50.580;8.818;2022-12-10T01:26:58;98161.00;;;-0.53;100.00
10921;BME280;5513;50.580;8.818;2022-12-10T01:29:27;98159.06;;;-0.71;100.00
10921;BME280;5513;50.580;8.818;2022-12-10T01:31:58;98162.38;;;-0.68;100.00
10921;BME280;5513;50.580;8.818;2022-12-10T01:34:28;98164.25;;;-0.71;100.00
10921;BME280;5513;50.580;8.818;2022-12-10T01:36:57;98179.72;;;-0.68;100.00
10921;BME280;5513;50.580;8.818;2022-12-10T01:39:29;98174.28;;;-0.61;100.00
10921;BME280;5513;50.580;8.818;2022-12-10T01:41:59;98182.66;;;-0.52;100.00
10921;BME280;5513;50.580;8.818;2022-12-10T01:47:41;98186.09;;;-0.52;100.00
10921;BME280;5513;50.580;8.818;2022-12-10T01:50:09;98182.78;;;-0.55;100.00
10921;BME280;5513;50.580;8.818;2022-12-10T01:52:40;98177.97;;;-0.43;100.00
10921;BME280;5513;50.580;8.818;2022-12-10T01:58:22;98180.53;;;-0.41;100.00
10921;BME280;5513;50.580;8.818;2022-12-10T02:01:01;98185.06;;;-0.46;100.00
10921;BME280;5513;50.580;8.818;2022-12-10T02:03:37;98189.88;;;-0.36;100.00
10921;BME280;5513;50.580;8.818;2022-12-10T02:06:22;98190.53;;;-0.31;100.00
10921;BME280;5513;50.580;8.818;2022-12-10T02:09:03;98192.34;;;-0.33;100.00
10921;BME280;5513;50.580;8.818;2022-12-10T02:11:39;98182.69;;;-0.29;100.00
10921;BME280;5513;50.580;8.818;2022-12-10T02:14:15;98189.28;;;-0.19;100.00
10921;BME280;5513;50.580;8.818;2022-12-10T02:16:50;98187.66;;;-0.23;100.00
10921;BME280;5513;50.580;8.818;2022-12-10T02:19:28;98189.16;;;-0.16;100.00
10921;BME280;5513;50.580;8.818;2022-12-10T02:22:00;98189.53;;;-0.03;100.00
10921;BME280;5513;50.580;8.818;2022-12-10T02:24:33;98192.00;;;0.02;100.00
10921;BME280;5513;50.580;8.818;2022-12-10T02:27:08;98179.38;;;-0.09;100.00
10921;BME280;5513;50.580;8.818;2022-12-10T02:29:43;98182.91;;;-0.12;100.00
10921;BME280;5513;50.580;8.818;2022-12-10T02:32:20;98178.16;;;-0.24;100.00
10921;BME280;5513;50.580;8.818;2022-12-10T02:34:56;98181.84;;;-0.06;100.00
10921;BME280;5513;50.580;8.818;2022-12-10T02:37:35;98180.25;;;-0.10;100.00
10921;BME280;5513;50.580;8.818;2022-12-10T02:40:08;98176.78;;;-0.09;100.00
10921;BME280;5513;50.580;8.818;2022-12-10T02:42:41;98168.91;;;-0.08;100.00
10921;BME280;5513;50.580;8.818;2022-12-10T02:45:12;98170.53;;;-0.05;100.00
10921;BME280;5513;50.580;8.818;2022-12-10T02:47:41;98178.06;;;0.03;100.00
10921;BME280;5513;50.580;8.818;2022-12-10T02:50:16;98168.94;;;0.14;100.00
10921;BME280;5513;50.580;8.818;2022-12-10T02:52:48;98165.00;;;0.04;100.00
10921;BME280;5513;50.580;8.818;2022-12-10T02:55:19;98166.88;;;0.01;100.00
10921;BME280;5513;50.580;8.818;2022-12-10T02:58:00;98164.06;;;0.05;100.00
10921;BME280;5513;50.580;8.818;2022-12-10T03:00:39;98162.94;;;0.12;100.00
10921;BME280;5513;50.580;8.818;2022-12-10T03:03:20;98171.34;;;0.19;100.00
10921;BME280;5513;50.580;8.818;2022-12-10T03:05:56;98168.16;;;0.12;100.00
10921;BME280;5513;50.580;8.818;2022-12-10T03:08:34;98177.78;;;0.10;100.00
10921;BME280;5513;50.580;8.818;2022-12-10T03:11:11;98170.81;;;0.11;100.00
10921;BME280;5513;50.580;8.818;2022-12-10T03:13:45;98172.50;;;0.12;100.00
10921;BME280;5513;50.580;8.818;2022-12-10T03:16:18;98162.81;;;0.15;100.00
10921;BME280;5513;50.580;8.818;2022-12-10T03:18:50;98172.25;;;0.18;100.00
10921;BME280;5513;50.580;8.818;2022-12-10T03:21:22;98175.41;;;0.26;100.00
10921;BME280;5513;50.580;8.818;2022-12-10T03:23:52;98179.78;;;0.25;100.00
10921;BME280;5513;50.580;8.818;2022-12-10T03:26:22;98170.34;;;0.23;100.00
10921;BME280;5513;50.580;8.818;2022-12-10T03:28:55;98179.72;;;0.27;100.00
10921;BME280;5513;50.580;8.818;2022-12-10T03:31:26;98172.44;;;0.13;100.00
10921;BME280;5513;50.580;8.818;2022-12-10T03:33:56;98168.75;;;0.19;100.00
10921;BME280;5513;50.580;8.818;2022-12-10T03:36:27;98172.72;;;0.06;100.00
10921;BME280;5513;50.580;8.818;2022-12-10T03:38:58;98175.72;;;0.18;100.00
10921;BME280;5513;50.580;8.818;2022-12-10T03:41:29;98169.63;;;0.19;100.00
10921;BME280;5513;50.580;8.818;2022-12-10T03:44:00;98170.63;;;0.15;100.00
10921;BME280;5513;50.580;8.818;2022-12-10T03:46:31;98169.31;;;0.27;100.00
10921;BME280;5513;50.580;8.818;2022-12-10T03:49:01;98161.41;;;0.30;100.00
10921;BME280;5513;50.580;8.818;2022-12-10T03:51:29;98165.13;;;0.23;100.00
10921;BME280;5513;50.580;8.818;2022-12-10T03:53:58;98168.31;;;0.31;100.00
10921;BME280;5513;50.580;8.818;2022-12-10T03:56:27;98164.91;;;0.29;100.00
10921;BME280;5513;50.580;8.818;2022-12-10T03:58:55;98166.41;;;0.35;100.00
10921;BME280;5513;50.580;8.818;2022-12-10T04:01:25;98169.31;;;0.27;100.00
10921;BME280;5513;50.580;8.818;2022-12-10T04:03:56;98170.72;;;0.36;100.00
10921;BME280;5513;50.580;8.818;2022-12-10T04:06:25;98169.00;;;0.35;100.00
10921;BME280;5513;50.580;8.818;2022-12-10T04:08:53;98169.16;;;0.32;100.00
10921;BME280;5513;50.580;8.818;2022-12-10T04:11:25;98162.53;;;0.23;100.00
10921;BME280;5513;50.580;8.818;2022-12-10T04:13:54;98167.97;;;0.17;100.00
10921;BME280;5513;50.580;8.818;2022-12-10T04:16:40;98171.84;;;0.28;100.00
10921;BME280;5513;50.580;8.818;2022-12-10T04:19:12;98160.50;;;0.31;100.00
10921;BME280;5513;50.580;8.818;2022-12-10T04:21:43;98175.34;;;0.27;100.00
10921;BME280;5513;50.580;8.818;2022-12-10T04:24:31;98171.88;;;0.05;100.00
10921;BME280;5513;50.580;8.818;2022-12-10T04:27:19;98179.47;;;0.11;100.00
10921;BME280;5513;50.580;8.818;2022-12-10T04:29:48;98187.22;;;0.13;100.00
10921;BME280;5513;50.580;8.818;2022-12-10T04:32:17;98185.28;;;0.18;100.00
10921;BME280;5513;50.580;8.818;2022-12-10T04:34:50;98185.34;;;0.16;100.00
10921;BME280;5513;50.580;8.818;2022-12-10T04:37:22;98184.22;;;0.23;100.00
10921;BME280;5513;50.580;8.818;2022-12-10T04:39:52;98189.28;;;0.26;100.00
10921;BME280;5513;50.580;8.818;2022-12-10T04:42:22;98188.97;;;0.12;100.00
10921;BME280;5513;50.580;8.818;2022-12-10T04:44:51;98178.31;;;0.18;100.00
10921;BME280;5513;50.580;8.818;2022-12-10T04:47:20;98186.19;;;0.17;100.00
10921;BME280;5513;50.580;8.818;2022-12-10T04:49:51;98181.81;;;0.17;100.00
10921;BME280;5513;50.580;8.818;2022-12-10T04:52:22;98182.38;;;0.25;100.00
10921;BME280;5513;50.580;8.818;2022-12-10T04:54:53;98184.00;;;0.06;100.00
10921;BME280;5513;50.580;8.818;2022-12-10T04:57:21;98189.19;;;0.06;100.00
10921;BME280;5513;50.580;8.818;2022-12-10T04:59:49;98183.28;;;0.03;100.00
10921;BME280;5513;50.580;8.818;2022-12-10T05:02:18;98191.81;;;0.06;100.00
10921;BME280;5513;50.580;8.818;2022-12-10T05:04:49;98186.53;;;0.08;100.00
10921;BME280;5513;50.580;8.818;2022-12-10T05:07:18;98190.63;;;-0.09;100.00
10921;BME280;5513;50.580;8.818;2022-12-10T05:09:49;98193.72;;;-0.22;100.00
10921;BME280;5513;50.580;8.818;2022-12-10T05:12:17;98190.06;;;-0.17;100.00
10921;BME280;5513;50.580;8.818;2022-12-10T05:14:46;98198.31;;;-0.06;100.00
10921;BME280;5513;50.580;8.818;2022-12-10T05:17:14;98195.84;;;-0.09;100.00
10921;BME280;5513;50.580;8.818;2022-12-10T05:19:44;98196.00;;;-0.13;100.00
10921;BME280;5513;50.580;8.818;2022-12-10T05:22:14;98195.19;;;-0.15;100.00
10921;BME280;5513;50.580;8.818;2022-12-10T05:24:59;98196.44;;;-0.25;100.00
10921;BME280;5513;50.580;8.818;2022-12-10T05:27:31;98195.31;;;-0.18;100.00
10921;BME280;5513;50.580;8.818;2022-12-10T05:30:00;98193.78;;;-0.24;100.00
10921;BME280;5513;50.580;8.818;2022-12-10T05:32:28;98192.81;;;-0.21;100.00
10921;BME280;5513;50.580;8.818;2022-12-10T05:34:56;98203.91;;;-0.16;100.00
10921;BME280;5513;50.580;8.818;2022-12-10T05:37:27;98199.16;;;-0.05;100.00
10921;BME280;5513;50.580;8.818;2022-12-10T05:39:55;98204.16;;;0.01;100.00
10921;BME280;5513;50.580;8.818;2022-12-10T05:42:25;98197.06;;;0.05;100.00
10921;BME280;5513;50.580;8.818;2022-12-10T05:44:54;98203.06;;;0.07;100.00
10921;BME280;5513;50.580;8.818;2022-12-10T05:47:23;98209.88;;;0.11;100.00
10921;BME280;5513;50.580;8.818;2022-12-10T05:49:52;98206.78;;;-0.01;100.00
10921;BME280;5513;50.580;8.818;2022-12-10T05:52:20;98201.25;;;-0.15;100.00
10921;BME280;5513;50.580;8.818;2022-12-10T05:54:50;98216.63;;;-0.32;100.00
10921;BME280;5513;50.580;8.818;2022-12-10T05:57:19;98211.53;;;-0.35;100.00
10921;BME280;5513;50.580;8.818;2022-12-10T05:59:47;98220.00;;;-0.30;100.00
10921;BME280;5513;50.580;8.818;2022-12-10T06:02:16;98221.66;;;-0.27;100.00
10921;BME280;5513;50.580;8.818;2022-12-10T06:04:46;98219.59;;;-0.18;100.00
10921;BME280;5513;50.580;8.818;2022-12-10T06:07:14;98219.91;;;-0.27;100.00
10921;BME280;5513;50.580;8.818;2022-12-10T06:09:43;98226.75;;;-0.24;100.00
10921;BME280;5513;50.580;8.818;2022-12-10T06:12:13;98225.31;;;-0.33;100.00
10921;BME280;5513;50.580;8.818;2022-12-10T06:14:42;98225.19;;;-0.30;100.00
10921;BME280;5513;50.580;8.818;2022-12-10T06:17:11;98225.84;;;-0.23;100.00
10921;BME280;5513;50.580;8.818;2022-12-10T06:19:39;98230.31;;;-0.27;100.00
10921;BME280;5513;50.580;8.818;2022-12-10T06:22:08;98224.59;;;-0.37;100.00
10921;BME280;5513;50.580;8.818;2022-12-10T06:24:36;98235.66;;;-0.32;100.00
10921;BME280;5513;50.580;8.818;2022-12-10T06:27:04;98230.53;;;-0.33;100.00
10921;BME280;5513;50.580;8.818;2022-12-10T06:29:34;98230.41;;;-0.30;100.00
10921;BME280;5513;50.580;8.818;2022-12-10T06:32:03;98235.66;;;-0.32;100.00
10921;BME280;5513;50.580;8.818;2022-12-10T06:34:32;98233.13;;;-0.33;100.00
10921;BME280;5513;50.580;8.818;2022-12-10T06:37:08;98233.66;;;-0.23;100.00
10921;BME280;5513;50.580;8.818;2022-12-10T06:39:36;98239.69;;;-0.23;100.00
10921;BME280;5513;50.580;8.818;2022-12-10T06:42:06;98243.91;;;-0.19;100.00
10921;BME280;5513;50.580;8.818;2022-12-10T06:44:36;98241.97;;;-0.14;100.00
10921;BME280;5513;50.580;8.818;2022-12-10T06:47:04;98238.31;;;-0.08;100.00
10921;BME280;5513;50.580;8.818;2022-12-10T06:49:34;98248.16;;;-0.16;100.00
10921;BME280;5513;50.580;8.818;2022-12-10T06:52:03;98253.94;;;-0.08;100.00
10921;BME280;5513;50.580;8.818;2022-12-10T06:54:33;98254.66;;;-0.05;100.00
10921;BME280;5513;50.580;8.818;2022-12-10T06:57:03;98256.94;;;0.05;100.00
10921;BME280;5513;50.580;8.818;2022-12-10T06:59:31;98253.81;;;-0.05;100.00
10921;BME280;5513;50.580;8.818;2022-12-10T07:02:01;98261.28;;;0.04;100.00
10921;BME280;5513;50.580;8.818;2022-12-10T07:04:29;98261.34;;;0.03;100.00
10921;BME280;5513;50.580;8.818;2022-12-10T07:06:58;98271.75;;;0.03;100.00
10921;BME280;5513;50.580;8.818;2022-12-10T07:09:34;98274.03;;;0.12;100.00
10921;BME280;5513;50.580;8.818;2022-12-10T07:12:03;98273.91;;;0.15;100.00
10921;BME280;5513;50.580;8.818;2022-12-10T07:14:31;98273.13;;;0.13;100.00
10921;BME280;5513;50.580;8.818;2022-12-10T07:17:01;98278.00;;;0.22;100.00
10921;BME280;5513;50.580;8.818;2022-12-10T07:19:32;98281.91;;;0.10;100.00
10921;BME280;5513;50.580;8.818;2022-12-10T07:22:01;98281.94;;;0.09;100.00
10921;BME280;5513;50.580;8.818;2022-12-10T07:24:31;98278.72;;;0.02;100.00
10921;BME280;5513;50.580;8.818;2022-12-10T07:26:59;98280.19;;;0.09;100.00
10921;BME280;5513;50.580;8.818;2022-12-10T07:29:28;98285.34;;;0.11;100.00
10921;BME280;5513;50.580;8.818;2022-12-10T07:31:56;98286.34;;;0.07;100.00
10921;BME280;5513;50.580;8.818;2022-12-10T07:34:26;98285.91;;;0.19;100.00
10921;BME280;5513;50.580;8.818;2022-12-10T07:36:56;98292.94;;;0.17;100.00
10921;BME280;5513;50.580;8.818;2022-12-10T07:39:24;98298.06;;;0.18;100.00
10921;BME280;5513;50.580;8.818;2022-12-10T07:41:53;98303.34;;;0.17;100.00
10921;BME280;5513;50.580;8.818;2022-12-10T07:44:24;98303.47;;;-0.11;100.00
10921;BME280;5513;50.580;8.818;2022-12-10T07:46:54;98299.28;;;0.10;100.00
10921;BME280;5513;50.580;8.818;2022-12-10T07:49:23;98302.50;;;0.16;100.00
10921;BME280;5513;50.580;8.818;2022-12-10T07:51:53;98302.41;;;0.19;100.00
10921;BME280;5513;50.580;8.818;2022-12-10T07:54:21;98304.44;;;0.11;100.00
10921;BME280;5513;50.580;8.818;2022-12-10T07:56:49;98303.28;;;0.18;100.00
10921;BME280;5513;50.580;8.818;2022-12-10T07:59:19;98305.78;;;0.21;100.00
10921;BME280;5513;50.580;8.818;2022-12-10T08:01:48;98304.75;;;0.25;100.00
10921;BME280;5513;50.580;8.818;2022-12-10T08:04:16;98302.22;;;0.24;100.00
10921;BME280;5513;50.580;8.818;2022-12-10T08:06:45;98312.63;;;0.24;100.00
10921;BME280;5513;50.580;8.818;2022-12-10T08:09:16;98303.47;;;0.37;100.00
10921;BME280;5513;50.580;8.818;2022-12-10T08:11:45;98306.03;;;0.39;100.00
10921;BME280;5513;50.580;8.818;2022-12-10T08:14:14;98307.72;;;0.40;100.00
10921;BME280;5513;50.580;8.818;2022-12-10T08:16:45;98313.88;;;0.37;100.00
10921;BME280;5513;50.580;8.818;2022-12-10T08:19:13;98309.69;;;0.33;100.00
10921;BME280;5513;50.580;8.818;2022-12-10T08:21:48;98310.34;;;0.40;100.00
10921;BME280;5513;50.580;8.818;2022-12-10T08:24:20;98319.38;;;0.30;100.00
10921;BME280;5513;50.580;8.818;2022-12-10T08:26:49;98314.28;;;0.26;100.00
10921;BME280;5513;50.580;8.818;2022-12-10T08:29:18;98320.31;;;0.27;100.00
10921;BME280;5513;50.580;8.818;2022-12-10T08:31:48;98324.34;;;0.36;100.00
10921;BME280;5513;50.580;8.818;2022-12-10T08:34:18;98323.44;;;0.13;100.00
10921;BME280;5513;50.580;8.818;2022-12-10T08:36:49;98321.28;;;0.24;100.00
10921;BME280;5513;50.580;8.818;2022-12-10T08:39:20;98331.56;;;0.29;100.00
10921;BME280;5513;50.580;8.818;2022-12-10T08:41:51;98336.13;;;0.22;100.00
10921;BME280;5513;50.580;8.818;2022-12-10T08:44:19;98330.66;;;0.30;100.00
10921;BME280;5513;50.580;8.818;2022-12-10T08:46:47;98329.03;;;0.26;100.00
10921;BME280;5513;50.580;8.818;2022-12-10T08:49:16;98336.06;;;0.24;100.00
10921;BME280;5513;50.580;8.818;2022-12-10T08:51:44;98344.06;;;0.19;100.00
10921;BME280;5513;50.580;8.818;2022-12-10T08:54:13;98340.47;;;-0.03;100.00
10921;BME280;5513;50.580;8.818;2022-12-10T08:56:43;98345.16;;;0.12;100.00
10921;BME280;5513;50.580;8.818;2022-12-10T08:59:12;98349.69;;;0.07;100.00
10921;BME280;5513;50.580;8.818;2022-12-10T09:01:40;98354.09;;;0.05;100.00
10921;BME280;5513;50.580;8.818;2022-12-10T09:04:09;98358.13;;;0.14;100.00
10921;BME280;5513;50.580;8.818;2022-12-10T09:06:39;98352.00;;;0.15;100.00
10921;BME280;5513;50.580;8.818;2022-12-10T09:09:08;98358.56;;;0.02;100.00
10921;BME280;5513;50.580;8.818;2022-12-10T09:11:36;98366.13;;;0.08;100.00
10921;BME280;5513;50.580;8.818;2022-12-10T09:14:06;98363.97;;;0.20;100.00
10921;BME280;5513;50.580;8.818;2022-12-10T09:16:36;98357.63;;;0.27;100.00
10921;BME280;5513;50.580;8.818;2022-12-10T09:19:06;98368.88;;;0.30;100.00
10921;BME280;5513;50.580;8.818;2022-12-10T09:21:34;98369.28;;;0.42;100.00
10921;BME280;5513;50.580;8.818;2022-12-10T09:24:04;98366.09;;;0.34;100.00
10921;BME280;5513;50.580;8.818;2022-12-10T09:26:32;98372.59;;;0.46;100.00
10921;BME280;5513;50.580;8.818;2022-12-10T09:29:04;98370.13;;;0.43;100.00
10921;BME280;5513;50.580;8.818;2022-12-10T09:31:34;98373.50;;;0.45;100.00
10921;BME280;5513;50.580;8.818;2022-12-10T09:34:05;98376.88;;;0.48;100.00
10921;BME280;5513;50.580;8.818;2022-12-10T09:36:36;98375.22;;;0.46;100.00
10921;BME280;5513;50.580;8.818;2022-12-10T09:39:04;98372.59;;;0.46;100.00
10921;BME280;5513;50.580;8.818;2022-12-10T09:41:51;98380.47;;;0.44;100.00
10921;BME280;5513;50.580;8.818;2022-12-10T09:44:31;98374.28;;;0.47;100.00
10921;BME280;5513;50.580;8.818;2022-12-10T09:47:07;98369.16;;;0.45;100.00
10921;BME280;5513;50.580;8.818;2022-12-10T09:49:46;98367.06;;;0.55;100.00
10921;BME280;5513;50.580;8.818;2022-12-10T09:52:19;98352.97;;;0.61;100.00
10921;BME280;5513;50.580;8.818;2022-12-10T09:54:53;98357.00;;;0.69;100.00
10921;BME280;5513;50.580;8.818;2022-12-10T09:57:27;98353.78;;;0.84;100.00
10921;BME280;5513;50.580;8.818;2022-12-10T10:00:00;98356.13;;;0.92;100.00
10921;BME280;5513;50.580;8.818;2022-12-10T10:02:31;98344.19;;;1.08;100.00
10921;BME280;5513;50.580;8.818;2022-12-10T10:05:09;98346.50;;;1.38;100.00
10921;BME280;5513;50.580;8.818;2022-12-10T10:07:45;98353.19;;;1.45;100.00
10921;BME280;5513;50.580;8.818;2022-12-10T10:10:21;98349.41;;;1.52;100.00
10921;BME280;5513;50.580;8.818;2022-12-10T10:12:52;98357.69;;;1.84;100.00
10921;BME280;5513;50.580;8.818;2022-12-10T10:15:30;98347.50;;;1.98;100.00
10921;BME280;5513;50.580;8.818;2022-12-10T10:18:08;98334.31;;;2.01;100.00
10921;BME280;5513;50.580;8.818;2022-12-10T10:20:38;98330.91;;;2.19;100.00
10921;BME280;5513;50.580;8.818;2022-12-10T10:23:08;98331.34;;;2.29;100.00
10921;BME280;5513;50.580;8.818;2022-12-10T10:25:41;98330.09;;;2.38;100.00
10921;BME280;5513;50.580;8.818;2022-12-10T10:28:17;98323.28;;;2.54;100.00
10921;BME280;5513;50.580;8.818;2022-12-10T10:30:46;98314.66;;;2.52;100.00
10921;BME280;5513;50.580;8.818;2022-12-10T10:33:17;98317.03;;;2.38;100.00
10921;BME280;5513;50.580;8.818;2022-12-10T10:35:49;98313.66;;;2.36;100.00
10921;BME280;5513;50.580;8.818;2022-12-10T10:38:24;98325.78;;;2.37;100.00
10921;BME280;5513;50.580;8.818;2022-12-10T10:40:55;98318.16;;;2.12;100.00
10921;BME280;5513;50.580;8.818;2022-12-10T10:43:31;98321.81;;;2.28;100.00
10921;BME280;5513;50.580;8.818;2022-12-10T10:46:02;98320.94;;;2.48;100.00
10921;BME280;5513;50.580;8.818;2022-12-10T10:48:33;98323.69;;;2.45;100.00
10921;BME280;5513;50.580;8.818;2022-12-10T10:51:08;98329.94;;;2.41;100.00
10921;BME280;5513;50.580;8.818;2022-12-10T10:53:42;98312.81;;;2.54;100.00
10921;BME280;5513;50.580;8.818;2022-12-10T10:56:13;98318.53;;;2.43;100.00
10921;BME280;5513;50.580;8.818;2022-12-10T10:58:51;98316.97;;;2.58;100.00
10921;BME280;5513;50.580;8.818;2022-12-10T11:01:24;98310.97;;;2.56;100.00
10921;BME280;5513;50.580;8.818;2022-12-10T11:03:58;98311.66;;;2.41;100.00
10921;BME280;5513;50.580;8.818;2022-12-10T11:06:28;98314.09;;;2.45;100.00
10921;BME280;5513;50.580;8.818;2022-12-10T11:08:58;98318.81;;;2.56;100.00
10921;BME280;5513;50.580;8.818;2022-12-10T11:11:33;98311.25;;;2.50;100.00
10921;BME280;5513;50.580;8.818;2022-12-10T11:14:15;98322.81;;;2.25;100.00
10921;BME280;5513;50.580;8.818;2022-12-10T11:17:00;98324.66;;;2.03;100.00
10921;BME280;5513;50.580;8.818;2022-12-10T11:19:31;98325.56;;;2.02;100.00
10921;BME280;5513;50.580;8.818;2022-12-10T11:22:16;98321.00;;;1.87;100.00
10921;BME280;5513;50.580;8.818;2022-12-10T11:24:46;98317.94;;;1.77;100.00
10921;BME280;5513;50.580;8.818;2022-12-10T11:27:23;98325.31;;;1.88;100.00
10921;BME280;5513;50.580;8.818;2022-12-10T11:29:59;98320.44;;;2.19;100.00
10921;BME280;5513;50.580;8.818;2022-12-10T11:32:46;98323.97;;;2.57;100.00
10921;BME280;5513;50.580;8.818;2022-12-10T11:35:25;98316.13;;;2.95;100.00
10921;BME280;5513;50.580;8.818;2022-12-10T11:38:02;98316.13;;;3.14;100.00
10921;BME280;5513;50.580;8.818;2022-12-10T11:40:38;98314.59;;;3.27;100.00
10921;BME280;5513;50.580;8.818;2022-12-10T11:43:20;98320.34;;;3.16;100.00
10921;BME280;5513;50.580;8.818;2022-12-10T11:46:04;98318.50;;;3.55;100.00
10921;BME280;5513;50.580;8.818;2022-12-10T11:48:56;98325.25;;;3.05;100.00
10921;BME280;5513;50.580;8.818;2022-12-10T11:51:46;98324.63;;;2.81;100.00
10921;BME280;5513;50.580;8.818;2022-12-10T11:54:33;98325.31;;;2.66;100.00
10921;BME280;5513;50.580;8.818;2022-12-10T11:57:11;98321.88;;;2.66;100.00
10921;BME280;5513;50.580;8.818;2022-12-10T11:59:44;98321.94;;;2.83;100.00
10921;BME280;5513;50.580;8.818;2022-12-10T12:02:53;98322.19;;;3.14;100.00
10921;BME280;5513;50.580;8.818;2022-12-10T12:05:31;98324.97;;;3.48;100.00
10921;BME280;5513;50.580;8.818;2022-12-10T12:08:12;98313.84;;;3.79;100.00
10921;BME280;5513;50.580;8.818;2022-12-10T12:13:51;98315.00;;;4.23;100.00
10921;BME280;5513;50.580;8.818;2022-12-10T12:16:27;98325.19;;;4.29;100.00
10921;BME280;5513;50.580;8.818;2022-12-10T12:19:00;98316.50;;;4.12;100.00
10921;BME280;5513;50.580;8.818;2022-12-10T12:21:31;98316.75;;;4.07;100.00
10921;BME280;5513;50.580;8.818;2022-12-10T12:24:06;98319.53;;;3.87;100.00
10921;BME280;5513;50.580;8.818;2022-12-10T12:26:42;98325.91;;;3.64;100.00
10921;BME280;5513;50.580;8.818;2022-12-10T12:29:16;98327.53;;;3.49;100.00
10921;BME280;5513;50.580;8.818;2022-12-10T12:31:47;98324.84;;;3.68;100.00
10921;BME280;5513;50.580;8.818;2022-12-10T12:34:19;98326.59;;;3.50;100.00
10921;BME280;5513;50.580;8.818;2022-12-10T12:36:49;98327.44;;;3.14;100.00
10921;BME280;5513;50.580;8.818;2022-12-10T12:39:26;98326.38;;;3.19;100.00
10921;BME280;5513;50.580;8.818;2022-12-10T12:42:01;98328.72;;;2.87;100.00
10921;BME280;5513;50.580;8.818;2022-12-10T12:44:44;98332.75;;;2.56;100.00
10921;BME280;5513;50.580;8.818;2022-12-10T12:47:23;98334.25;;;2.62;100.00
10921;BME280;5513;50.580;8.818;2022-12-10T12:49:59;98342.38;;;2.75;100.00
10921;BME280;5513;50.580;8.818;2022-12-10T12:52:33;98341.56;;;2.54;100.00
10921;BME280;5513;50.580;8.818;2022-12-10T12:55:19;98347.28;;;2.43;100.00
10921;BME280;5513;50.580;8.818;2022-12-10T12:57:54;98348.69;;;2.50;100.00
10921;BME280;5513;50.580;8.818;2022-12-10T13:00:23;98357.44;;;2.49;100.00
10921;BME280;5513;50.580;8.818;2022-12-10T13:02:57;98349.25;;;2.57;100.00
10921;BME280;5513;50.580;8.818;2022-12-10T13:05:31;98349.13;;;2.60;100.00
10921;BME280;5513;50.580;8.818;2022-12-10T13:08:24;98352.84;;;2.36;100.00
10921;BME280;5513;50.580;8.818;2022-12-10T13:11:00;98359.97;;;2.32;100.00
10921;BME280;5513;50.580;8.818;2022-12-10T13:14:12;98361.16;;;2.05;100.00
10921;BME280;5513;50.580;8.818;2022-12-10T13:17:22;98345.72;;;2.19;100.00
10921;BME280;5513;50.580;8.818;2022-12-10T13:20:30;98356.56;;;1.89;100.00
10921;BME280;5513;50.580;8.818;2022-12-10T13:23:02;98357.94;;;1.78;100.00
10921;BME280;5513;50.580;8.818;2022-12-10T13:25:55;98351.59;;;1.83;100.00
10921;BME280;5513;50.580;8.818;2022-12-10T13:28:49;98363.38;;;2.14;100.00
10921;BME280;5513;50.580;8.818;2022-12-10T13:34:18;98360.75;;;2.73;100.00
10921;BME280;5513;50.580;8.818;2022-12-10T13:37:27;98366.75;;;2.75;100.00
10921;BME280;5513;50.580;8.818;2022-12-10T13:40:13;98366.09;;;2.31;100.00
10921;BME280;5513;50.580;8.818;2022-12-10T13:42:44;98374.50;;;2.38;100.00
10921;BME280;5513;50.580;8.818;2022-12-10T13:45:34;98371.16;;;2.54;100.00
10921;BME280;5513;50.580;8.818;2022-12-10T13:48:25;98376.88;;;2.44;100.00
10921;BME280;5513;50.580;8.818;2022-12-10T13:51:09;98379.78;;;2.56;100.00